Time;durP1;ratioP1;P1;durP2;ratioP2;P2;SDS_P1;SDS_P2;PMS_P1;PMS_P2;Temp;Humidity;BMP_temperature;BMP_pressure;BME280_temperature;BME280_humidity;BME280_pressure;Samples;Min_cycle;Max_cycle;Signal;HPM_P1;HPM_P2
2022/08/08 00:00:03;;;;;;;6.43;3.33;;;;;;;-147.53;100.00;57128.34;10226437;28;20050;-81
2022/08/08 00:05:36;;;;;;;;;;;;;;;-147.53;100.00;57128.34;10250956;28;20047;-80
2022/08/08 00:11:07;;;;;;;6.55;3.05;;;;;;;-147.53;100.00;57128.34;10238481;28;19922;-81
2022/08/08 00:16:25;;;;;;;8.88;3.47;;;;;;;-147.53;100.00;57128.34;10229834;28;20064;-81
2022/08/08 00:21:35;;;;;;;6.70;3.03;;;;;;;-147.53;100.00;57128.34;10238863;28;20055;-81
2022/08/08 00:26:51;;;;;;;9.38;3.13;;;;;;;-147.53;100.00;57128.34;10235189;28;20046;-81
2022/08/08 00:31:59;;;;;;;8.07;3.45;;;;;;;-147.53;100.00;57128.34;10253205;28;20263;-81
2022/08/08 00:37:33;;;;;;;6.78;3.17;;;;;;;-147.53;100.00;57128.34;10235635;28;20054;-80
2022/08/08 00:43:27;;;;;;;8.38;3.40;;;;;;;-147.53;100.00;57128.34;10240857;28;20051;-80
2022/08/08 00:48:50;;;;;;;6.20;2.90;;;;;;;-147.53;100.00;57128.34;10252892;28;20050;-81
2022/08/08 00:54:29;;;;;;;8.90;3.17;;;;;;;-147.53;100.00;57128.34;10260792;28;20054;-81
2022/08/08 00:59:55;;;;;;;9.15;3.25;;;;;;;-147.53;100.00;57128.34;10248655;28;20582;-81
2022/08/08 01:05:19;;;;;;;5.45;2.92;;;;;;;-147.53;100.00;57128.34;10221644;28;20039;-81
2022/08/08 01:11:15;;;;;;;6.55;3.40;;;;;;;-147.53;100.00;57128.34;10221468;28;20123;-81
2022/08/08 01:16:39;;;;;;;7.75;3.70;;;;;;;-147.53;100.00;57128.34;10233142;28;20455;-81
2022/08/08 01:21:52;;;;;;;8.38;3.60;;;;;;;-147.53;100.00;57128.34;10234414;28;20095;-81
2022/08/08 01:27:59;;;;;;;7.30;3.20;;;;;;;-147.53;100.00;57128.34;10232821;28;20055;-80
2022/08/08 01:33:34;;;;;;;7.28;3.15;;;;;;;-147.53;100.00;57128.34;10232851;28;20051;-81
2022/08/08 01:39:16;;;;;;;6.57;2.97;;;;;;;-147.53;100.00;57128.34;10210542;28;20133;-81
2022/08/08 01:44:49;;;;;;;10.50;4.15;;;;;;;-147.53;100.00;57128.34;10232274;28;20043;-81
2022/08/08 01:50:04;;;;;;;6.25;3.40;;;;;;;-147.53;100.00;57128.34;10213544;29;20056;-81
2022/08/08 01:55:21;;;;;;;8.10;3.17;;;;;;;-147.53;100.00;57128.34;10232383;28;20055;-81
2022/08/08 02:01:05;;;;;;;6.47;3.15;;;;;;;-147.53;100.00;57128.34;10231272;28;20051;-81
2022/08/08 02:06:51;;;;;;;7.63;3.20;;;;;;;-147.53;100.00;57128.34;10227865;28;20051;-81
2022/08/08 02:11:57;;;;;;;6.13;3.40;;;;;;;-147.53;100.00;57128.34;10230837;28;20106;-81
2022/08/08 02:17:24;;;;;;;6.85;3.50;;;;;;;-147.53;100.00;57128.34;10230090;28;20114;-81
2022/08/08 02:23:02;;;;;;;6.72;2.95;;;;;;;-147.53;100.00;57128.34;10228642;28;20047;-81
2022/08/08 02:28:14;;;;;;;6.75;3.13;;;;;;;-147.53;100.00;57128.34;10232103;28;20051;-82
2022/08/08 02:33:28;;;;;;;8.57;3.53;;;;;;;-147.53;100.00;57128.34;10230447;28;20055;-82
2022/08/08 02:39:20;;;;;;;6.05;3.05;;;;;;;-147.53;100.00;57128.34;10227971;28;20067;-82
2022/08/08 02:45:45;;;;;;;7.00;3.22;;;;;;;-147.53;100.00;57128.34;10222369;28;20039;-81
2022/08/08 02:51:50;;;;;;;11.98;3.58;;;;;;;-147.53;100.00;57128.34;10103368;29;20128;-81
2022/08/08 02:57:46;;;;;;;6.93;3.25;;;;;;;-147.53;100.00;57128.34;10228562;28;20051;-81
2022/08/08 03:03:10;;;;;;;5.93;3.13;;;;;;;-147.53;100.00;57128.34;10228815;28;20062;-81
2022/08/08 03:08:55;;;;;;;7.40;3.15;;;;;;;-147.53;100.00;57128.34;10218970;28;20043;-82
2022/08/08 03:14:01;;;;;;;7.43;3.30;;;;;;;-147.53;100.00;57128.34;10220861;28;20051;-81
2022/08/08 03:19:46;;;;;;;9.00;3.50;;;;;;;-147.53;100.00;57128.34;10217002;28;20043;-83
2022/08/08 03:24:53;;;;;;;8.23;3.60;;;;;;;-147.53;100.00;57128.34;10219103;28;20047;-81
2022/08/08 03:30:06;;;;;;;7.85;3.75;;;;;;;-147.53;100.00;57128.34;10234719;28;20471;-81
2022/08/08 03:35:10;;;;;;;8.70;4.40;;;;;;;-147.53;100.00;57128.34;10220540;28;20055;-82
2022/08/08 03:40:16;;;;;;;7.93;3.60;;;;;;;-147.53;100.00;57128.34;10225811;28;20066;-82
2022/08/08 03:45:34;;;;;;;;;;;;;;;-147.53;100.00;57128.34;10234550;28;20043;-81
2022/08/08 03:50:57;;;;;;;7.85;3.50;;;;;;;-147.53;100.00;57128.34;10229943;28;20497;-81
2022/08/08 03:56:00;;;;;;;7.18;3.58;;;;;;;-147.53;100.00;57128.34;10239168;28;20051;-81
2022/08/08 04:01:06;;;;;;;8.13;4.10;;;;;;;-147.53;100.00;57128.34;10213839;28;20483;-81
2022/08/08 04:06:26;;;;;;;;;;;;;;;-147.53;100.00;57128.34;10235637;28;20443;-82
2022/08/08 04:11:32;;;;;;;7.78;3.67;;;;;;;-147.53;100.00;57128.34;10237875;28;19955;-81
2022/08/08 04:16:55;;;;;;;7.25;3.42;;;;;;;-147.53;100.00;57128.34;10244226;28;20058;-82
2022/08/08 04:21:57;;;;;;;6.00;3.33;;;;;;;-147.53;100.00;57128.34;10251614;28;20058;-81
2022/08/08 04:27:05;;;;;;;7.18;3.80;;;;;;;-147.53;100.00;57128.34;10248068;28;20438;-82
2022/08/08 04:32:27;;;;;;;8.27;3.75;;;;;;;-147.53;100.00;57128.34;10236864;28;20049;-82
2022/08/08 04:37:47;;;;;;;6.53;3.37;;;;;;;-147.53;100.00;57128.34;10235153;28;20091;-82
2022/08/08 04:42:55;;;;;;;7.50;3.85;;;;;;;-147.53;100.00;57128.34;10224395;28;21835;-81
2022/08/08 04:48:08;;;;;;;9.20;4.25;;;;;;;-147.53;100.00;57128.34;10225972;28;20043;-82
2022/08/08 04:53:13;;;;;;;8.27;3.90;;;;;;;-147.53;100.00;57128.34;10224751;28;20055;-82
2022/08/08 04:58:35;;;;;;;8.32;4.10;;;;;;;-147.53;100.00;57128.34;10225692;28;20060;-82
2022/08/08 05:03:39;;;;;;;7.80;4.22;;;;;;;-147.53;100.00;57128.34;10221817;28;20411;-83
2022/08/08 05:09:03;;;;;;;11.27;4.22;;;;;;;-147.53;100.00;57128.34;10228259;28;20075;-82
2022/08/08 05:14:12;;;;;;;7.20;3.83;;;;;;;-147.53;100.00;57128.34;10224014;28;20051;-81
2022/08/08 05:19:19;;;;;;;9.30;4.10;;;;;;;-147.53;100.00;57128.34;10223094;28;20051;-82
2022/08/08 05:24:40;;;;;;;7.50;3.95;;;;;;;-147.53;100.00;57128.34;10222028;28;20066;-81
2022/08/08 05:29:49;;;;;;;9.50;4.82;;;;;;;-147.53;100.00;57128.34;10208650;28;20035;-81
2022/08/08 05:34:59;;;;;;;9.02;4.65;;;;;;;-147.53;100.00;57128.34;10211056;28;20055;-81
2022/08/08 05:40:09;;;;;;;9.93;4.95;;;;;;;-147.53;100.00;57128.34;10227239;28;20178;-81
2022/08/08 05:45:16;;;;;;;10.68;4.70;;;;;;;-147.53;100.00;57128.34;10205343;28;20066;-81
2022/08/08 05:50:35;;;;;;;10.43;4.70;;;;;;;-147.53;100.00;57128.34;10204178;28;20043;-83
2022/08/08 05:55:42;;;;;;;19.67;6.80;;;;;;;-147.53;100.00;57128.34;10223561;28;20130;-81
2022/08/08 06:01:05;;;;;;;17.00;5.75;;;;;;;-147.53;100.00;57128.34;10232372;28;20051;-81
2022/08/08 06:06:11;;;;;;;14.43;4.43;;;;;;;-147.53;100.00;57128.34;10223211;28;20047;-80
2022/08/08 06:11:19;;;;;;;8.43;4.45;;;;;;;-147.53;100.00;57128.34;10212722;28;20150;-81
2022/08/08 06:16:23;;;;;;;10.63;4.18;;;;;;;-147.53;100.00;57128.34;10222556;28;20078;-81
2022/08/08 06:21:51;;;;;;;10.65;3.80;;;;;;;-147.53;100.00;57128.34;10199366;28;20055;-79
2022/08/08 06:27:09;;;;;;;9.57;4.20;;;;;;;-147.53;100.00;57128.34;10221535;28;20051;-81
2022/08/08 06:32:16;;;;;;;8.98;3.80;;;;;;;-147.53;100.00;57128.34;10205267;28;20515;-81
2022/08/08 06:37:30;;;;;;;8.20;3.55;;;;;;;-147.53;100.00;57128.34;10219587;28;20053;-83
2022/08/08 06:42:49;;;;;;;9.50;3.67;;;;;;;-147.53;100.00;57128.34;10202166;28;20051;-82
2022/08/08 06:47:57;;;;;;;8.05;3.45;;;;;;;-147.53;100.00;57128.34;10216553;28;20144;-83
2022/08/08 06:53:08;;;;;;;11.40;3.28;;;;;;;-147.53;100.00;57128.34;10217772;28;20055;-84
2022/08/08 06:58:16;;;;;;;9.23;2.75;;;;;;;-147.53;100.00;57128.34;10223795;28;20039;-83
2022/08/08 07:03:37;;;;;;;6.55;2.63;;;;;;;-147.53;100.00;57128.34;10220662;28;20563;-86
2022/08/08 07:09:11;;;;;;;5.57;2.45;;;;;;;-147.53;100.00;57128.34;10236487;28;20058;-84
2022/08/08 07:14:23;;;;;;;8.38;2.33;;;;;;;-147.53;100.00;57128.34;10210746;28;20423;-85
2022/08/08 07:19:40;;;;;;;4.15;2.00;;;;;;;-147.53;100.00;57128.34;10231983;28;20130;-83
2022/08/08 07:24:48;;;;;;;4.85;1.90;;;;;;;-147.53;100.00;57128.34;10221906;28;20058;-84
2022/08/08 07:29:54;;;;;;;6.72;1.80;;;;;;;-147.53;100.00;57128.34;10223500;28;20435;-85
2022/08/08 07:35:14;;;;;;;5.53;1.75;;;;;;;-147.53;100.00;57128.34;10220968;28;20074;-84
2022/08/08 07:40:21;;;;;;;4.07;1.52;;;;;;;-147.53;100.00;57128.34;10222253;28;20511;-83
2022/08/08 07:45:34;;;;;;;5.38;1.88;;;;;;;-147.53;100.00;57128.34;10225810;28;20075;-83
2022/08/08 07:50:59;;;;;;;6.40;2.03;;;;;;;-147.53;100.00;57128.34;10224003;28;20043;-83
2022/08/08 07:56:10;;;;;;;7.05;1.70;;;;;;;-147.53;100.00;57128.34;10216593;28;20042;-82
2022/08/08 08:01:19;;;;;;;7.47;1.98;;;;;;;-147.53;100.00;57128.34;10246192;28;20050;-80
2022/08/08 08:06:32;;;;;;;8.27;1.77;;;;;;;-147.53;100.00;57128.34;10237961;28;20035;-80
2022/08/08 08:11:47;;;;;;;6.63;1.55;;;;;;;-147.53;100.00;57128.34;10238272;28;20511;-81
2022/08/08 08:17:08;;;;;;;6.35;1.60;;;;;;;-147.53;100.00;57128.34;10235297;28;20047;-81
2022/08/08 08:22:10;;;;;;;4.70;1.10;;;;;;;-147.53;100.00;57128.34;10231043;28;20039;-81
2022/08/08 08:27:20;;;;;;;;;;;;;;;-147.53;100.00;57128.34;10234011;28;20036;-81
2022/08/08 08:32:30;;;;;;;;;;;;;;;-147.53;100.00;57128.34;10225176;28;19926;-80
2022/08/08 08:37:42;;;;;;;4.78;1.48;;;;;;;-147.53;100.00;57128.34;10222580;28;19962;-81
2022/08/08 08:43:06;;;;;;;4.25;1.20;;;;;;;-147.53;100.00;57128.34;10232774;28;20055;-81
2022/08/08 08:48:19;;;;;;;6.68;1.33;;;;;;;-147.53;100.00;57128.34;10217770;28;20044;-80
2022/08/08 08:53:24;;;;;;;5.32;1.30;;;;;;;-147.53;100.00;57128.34;10236774;28;20043;-81
2022/08/08 08:58:51;;;;;;;5.38;1.80;;;;;;;-147.53;100.00;57128.34;10232037;28;20040;-81
2022/08/08 09:04:04;;;;;;;4.22;1.27;;;;;;;-147.53;100.00;57128.34;10235679;28;20460;-82
2022/08/08 09:09:16;;;;;;;6.05;1.23;;;;;;;-147.53;100.00;57128.34;10238384;28;20169;-81
2022/08/08 09:14:44;;;;;;;3.65;1.08;;;;;;;-147.53;100.00;57128.34;10235615;28;20062;-81
2022/08/08 09:19:57;;;;;;;3.38;1.13;;;;;;;-147.53;100.00;57128.34;10238385;28;20062;-80
2022/08/08 09:25:19;;;;;;;4.63;1.25;;;;;;;-147.53;100.00;57128.34;10255981;28;20047;-80
2022/08/08 09:30:42;;;;;;;3.73;1.33;;;;;;;-147.53;100.00;57128.34;10251120;28;20031;-81
2022/08/08 09:35:51;;;;;;;4.22;1.25;;;;;;;-147.53;100.00;57128.34;10211267;28;20581;-81
2022/08/08 09:41:05;;;;;;;5.47;1.33;;;;;;;-147.53;100.00;57128.34;10228436;28;20074;-81
2022/08/08 09:46:09;;;;;;;3.15;1.17;;;;;;;-147.53;100.00;57128.34;10254837;28;20047;-81
2022/08/08 09:51:22;;;;;;;3.92;1.10;;;;;;;-147.53;100.00;57128.34;10233631;28;20039;-81
2022/08/08 09:56:32;;;;;;;3.05;1.00;;;;;;;-147.53;100.00;57128.34;10235183;28;20506;-81
2022/08/08 10:01:44;;;;;;;3.72;1.10;;;;;;;-147.53;100.00;57128.34;10237818;28;20482;-82
2022/08/08 10:07:11;;;;;;;4.85;1.27;;;;;;;-147.53;100.00;57128.34;10240174;28;20042;-81
2022/08/08 10:12:16;;;;;;;5.18;1.10;;;;;;;-147.53;100.00;57128.34;10235952;28;20094;-82
2022/08/08 10:17:43;;;;;;;1.88;0.70;;;;;;;-147.53;100.00;57128.34;10247548;28;20041;-81
2022/08/08 10:23:04;;;;;;;1.77;0.80;;;;;;;-147.53;100.00;57128.34;10242390;28;20043;-82
2022/08/08 10:28:20;;;;;;;2.42;0.93;;;;;;;-147.53;100.00;57128.34;10225711;28;20051;-82
2022/08/08 10:33:33;;;;;;;3.53;1.00;;;;;;;-147.53;100.00;57128.34;10225277;28;20055;-82
2022/08/08 10:39:01;;;;;;;3.22;1.08;;;;;;;-147.53;100.00;57128.34;10209031;28;20139;-80
2022/08/08 10:44:11;;;;;;;3.42;1.13;;;;;;;-147.53;100.00;57128.34;10219333;28;20043;-81
2022/08/08 10:49:19;;;;;;;6.40;1.30;;;;;;;-147.53;100.00;57128.34;10232778;28;20509;-83
2022/08/08 10:54:51;;;;;;;5.03;1.45;;;;;;;-147.53;100.00;57128.34;10231100;28;20035;-81
2022/08/08 10:59:58;;;;;;;4.43;1.20;;;;;;;-147.53;100.00;57128.34;10230890;28;20067;-80
2022/08/08 11:05:03;;;;;;;5.20;1.40;;;;;;;-147.53;100.00;57128.34;10240268;28;20558;-81
2022/08/08 11:10:22;;;;;;;5.25;1.38;;;;;;;-147.53;100.00;57128.34;10226962;28;20491;-81
2022/08/08 11:15:32;;;;;;;4.18;1.02;;;;;;;-147.53;100.00;57128.34;10244669;28;20054;-82
2022/08/08 11:20:36;;;;;;;5.22;1.00;;;;;;;-147.53;100.00;57128.34;10204869;28;20078;-81
2022/08/08 11:25:39;;;;;;;6.22;1.20;;;;;;;-147.53;100.00;57128.34;10213658;28;20070;-81
2022/08/08 11:30:59;;;;;;;5.90;1.10;;;;;;;-147.53;100.00;57128.34;10226963;28;20138;-82
2022/08/08 11:36:04;;;;;;;4.80;0.90;;;;;;;-147.53;100.00;57128.34;10245031;28;20079;-84
2022/08/08 11:41:09;;;;;;;4.72;1.00;;;;;;;-147.53;100.00;57128.34;10238844;28;20489;-84
2022/08/08 11:46:13;;;;;;;3.45;1.05;;;;;;;-147.53;100.00;57128.34;10229139;28;20058;-83
2022/08/08 11:51:23;;;;;;;5.47;1.00;;;;;;;-147.53;100.00;57128.34;10230507;28;20055;-84
2022/08/08 11:56:40;;;;;;;4.32;1.20;;;;;;;-147.53;100.00;57128.34;10229727;28;20039;-82
2022/08/08 12:01:43;;;;;;;3.75;1.05;;;;;;;-147.53;100.00;57128.34;10234630;28;20121;-82
2022/08/08 12:06:45;;;;;;;3.17;0.80;;;;;;;-147.53;100.00;57128.34;10236377;28;20044;-82
2022/08/08 12:11:49;;;;;;;6.35;1.15;;;;;;;-147.53;100.00;57128.34;10210061;28;20055;-81
2022/08/08 12:16:52;;;;;;;6.43;1.55;;;;;;;-147.53;100.00;57128.34;10229505;28;20047;-79
2022/08/08 12:22:04;;;;;;;10.95;2.22;;;;;;;-147.53;100.00;57128.34;10204626;28;20111;-79
2022/08/08 12:27:17;;;;;;;7.05;1.13;;;;;;;-147.53;100.00;57128.34;10229932;28;20035;-79
2022/08/08 12:32:18;;;;;;;4.70;1.10;;;;;;;-147.53;100.00;57128.34;10227208;28;20535;-81
2022/08/08 12:37:25;;;;;;;4.95;0.90;;;;;;;-147.53;100.00;57128.34;10231808;28;20496;-81
2022/08/08 12:42:45;;;;;;;1.17;0.80;;;;;;;-147.53;100.00;57128.34;10228933;28;20051;-83
2022/08/08 12:47:58;;;;;;;5.50;1.40;;;;;;;-147.53;100.00;57128.34;10245653;28;20483;-81
2022/08/08 12:53:22;;;;;;;4.25;0.93;;;;;;;-147.53;100.00;57128.34;10232935;28;20486;-83
2022/08/08 12:58:46;;;;;;;5.15;0.93;;;;;;;-147.53;100.00;57128.34;10249557;28;20043;-84
2022/08/08 13:03:49;;;;;;;3.72;1.10;;;;;;;-147.53;100.00;57128.34;10255303;28;20086;-83
2022/08/08 13:08:52;;;;;;;3.15;0.98;;;;;;;-147.53;100.00;57128.34;10249910;28;20051;-82
2022/08/08 13:14:13;;;;;;;5.18;1.10;;;;;;;-147.53;100.00;57128.34;10237729;28;20053;-82
2022/08/08 13:19:15;;;;;;;3.17;1.65;;;;;;;-147.53;100.00;57128.34;10233360;28;20043;-80
2022/08/08 13:24:21;;;;;;;4.15;0.82;;;;;;;-147.53;100.00;57128.34;10239161;28;20110;-80
2022/08/08 13:29:50;;;;;;;4.35;0.85;;;;;;;-147.53;100.00;57128.34;10226229;28;20043;-79
2022/08/08 13:34:55;;;;;;;2.85;0.80;;;;;;;-147.53;100.00;57128.34;10240998;28;20047;-79
2022/08/08 13:40:01;;;;;;;3.03;0.77;;;;;;;-147.53;100.00;57128.34;10239830;28;20086;-81
2022/08/08 13:45:03;;;;;;;5.28;1.08;;;;;;;-147.53;100.00;57128.34;10208844;28;20074;-82
2022/08/08 13:50:07;;;;;;;3.47;1.15;;;;;;;-147.53;100.00;57128.34;10222458;28;20079;-81
2022/08/08 13:55:29;;;;;;;2.45;0.90;;;;;;;-147.53;100.00;57128.34;10212441;28;20073;-81
2022/08/08 14:00:39;;;;;;;3.25;0.98;;;;;;;-147.53;100.00;57128.34;10243944;28;20047;-81
2022/08/08 14:05:45;;;;;;;4.53;0.80;;;;;;;-147.53;100.00;57128.34;10247906;28;20551;-81
2022/08/08 14:11:01;;;;;;;3.00;1.00;;;;;;;-147.53;100.00;57128.34;10230083;28;20039;-81
2022/08/08 14:16:04;;;;;;;5.30;1.00;;;;;;;-147.53;100.00;57128.34;10231590;28;20055;-81
2022/08/08 14:21:17;;;;;;;7.95;1.10;;;;;;;-147.53;100.00;57128.34;10247801;28;20533;-81
2022/08/08 14:26:25;;;;;;;4.43;1.00;;;;;;;-147.53;100.00;57128.34;10233082;28;20067;-81
2022/08/08 14:31:29;;;;;;;3.63;0.98;;;;;;;-147.53;100.00;57128.34;10236574;28;20495;-81
2022/08/08 14:36:50;;;;;;;5.05;1.10;;;;;;;-147.53;100.00;57128.34;10247307;28;20091;-81
2022/08/08 14:42:02;;;;;;;2.97;1.00;;;;;;;-147.53;100.00;57128.34;10246561;28;20051;-81
2022/08/08 14:47:11;;;;;;;2.53;0.90;;;;;;;-147.53;100.00;57128.34;10226699;28;20039;-81
2022/08/08 14:52:21;;;;;;;3.70;1.00;;;;;;;-147.53;100.00;57128.34;10238814;28;25020;-81
2022/08/08 14:57:23;;;;;;;6.32;0.85;;;;;;;-147.53;100.00;57128.34;10244128;28;20039;-81
2022/08/08 15:02:46;;;;;;;3.85;0.90;;;;;;;-147.53;100.00;57128.34;10229489;28;20057;-81
2022/08/08 15:08:08;;;;;;;1.23;0.77;;;;;;;-147.53;100.00;57128.34;10242769;28;20044;-81
2022/08/08 15:13:31;;;;;;;2.13;0.75;;;;;;;-147.53;100.00;57128.34;10247036;28;20039;-81
2022/08/08 15:18:41;;;;;;;4.28;0.95;;;;;;;-147.53;100.00;57128.34;10227333;28;20070;-81
2022/08/08 15:23:52;;;;;;;5.28;0.82;;;;;;;-147.53;100.00;57128.34;10246869;28;20114;-82
2022/08/08 15:28:55;;;;;;;2.83;0.70;;;;;;;-147.53;100.00;57128.34;10226638;28;20471;-81
2022/08/08 15:33:56;;;;;;;2.97;0.70;;;;;;;-147.53;100.00;57128.34;10244996;28;20142;-81
2022/08/08 15:39:00;;;;;;;5.47;1.20;;;;;;;-147.53;100.00;57128.34;10243591;28;20067;-82
2022/08/08 15:44:03;;;;;;;2.65;0.88;;;;;;;-147.53;100.00;57128.34;10227212;28;20047;-84
2022/08/08 15:49:05;;;;;;;3.42;0.88;;;;;;;-147.53;100.00;57128.34;10243784;28;20545;-79
2022/08/08 15:54:06;;;;;;;2.40;0.80;;;;;;;-147.53;100.00;57128.34;10250209;28;20055;-80
2022/08/08 15:59:28;;;;;;;5.03;1.10;;;;;;;-147.53;100.00;57128.34;10233900;28;20054;-80
2022/08/08 16:04:50;;;;;;;5.07;1.00;;;;;;;-147.53;100.00;57128.34;10248819;28;20051;-80
2022/08/08 16:09:59;;;;;;;2.55;0.77;;;;;;;-147.53;100.00;57128.34;10256335;28;20051;-79
2022/08/08 16:15:20;;;;;;;5.85;0.98;;;;;;;-147.53;100.00;57128.34;10243937;28;20074;-78
2022/08/08 16:20:23;;;;;;;2.70;0.93;;;;;;;-147.53;100.00;57128.34;10233083;28;20070;-82
2022/08/08 16:25:30;;;;;;;2.70;0.80;;;;;;;-147.53;100.00;57128.34;10234233;28;20043;-80
2022/08/08 16:30:52;;;;;;;2.25;0.57;;;;;;;-147.53;100.00;57128.34;10252110;28;20051;-81
2022/08/08 16:35:54;;;;;;;1.80;0.68;;;;;;;-147.53;100.00;57128.34;10238702;28;20047;-80
2022/08/08 16:40:57;;;;;;;2.22;0.80;;;;;;;-147.53;100.00;57128.34;10234066;28;20080;-81
2022/08/08 16:46:02;;;;;;;6.15;1.00;;;;;;;-147.53;100.00;57128.34;10256329;28;20115;-81
2022/08/08 16:51:24;;;;;;;3.47;0.98;;;;;;;-147.53;100.00;57128.34;10232816;28;20119;-81
2022/08/08 16:56:46;;;;;;;3.83;1.00;;;;;;;-147.53;100.00;57128.34;10237998;28;20050;-80
2022/08/08 17:02:17;;;;;;;6.35;1.20;;;;;;;-147.53;100.00;57128.34;10216544;28;20055;-82
2022/08/08 17:07:39;;;;;;;5.78;1.13;;;;;;;-147.53;100.00;57128.34;10241931;28;20052;-82
2022/08/08 17:12:43;;;;;;;3.25;1.00;;;;;;;-147.53;100.00;57128.34;10238567;28;20051;-81
2022/08/08 17:17:54;;;;;;;3.15;0.80;;;;;;;-147.53;100.00;57128.34;10251302;28;20046;-81
2022/08/08 17:23:05;;;;;;;4.90;0.88;;;;;;;-147.53;100.00;57128.34;10251884;28;20569;-85
2022/08/08 17:28:17;;;;;;;2.38;0.70;;;;;;;-147.53;100.00;57128.34;10233277;28;20407;-80
2022/08/08 17:33:36;;;;;;;3.63;0.70;;;;;;;-147.53;100.00;57128.34;10247626;28;20043;-83
2022/08/08 17:38:58;;;;;;;2.00;0.70;;;;;;;-147.53;100.00;57128.34;10231731;28;20043;-84
2022/08/08 17:44:20;;;;;;;4.22;2.00;;;;;;;-147.53;100.00;57128.34;10225133;28;20043;-83
2022/08/08 17:49:27;;;;;;;3.47;1.00;;;;;;;-147.53;100.00;57128.34;10241602;28;20047;-82
2022/08/08 17:54:44;;;;;;;1.73;0.80;;;;;;;-147.53;100.00;57128.34;10222371;28;20047;-85
2022/08/08 17:59:47;;;;;;;2.70;0.75;;;;;;;-147.53;100.00;57128.34;10248091;28;20069;-78
2022/08/08 18:04:49;;;;;;;3.35;0.90;;;;;;;-147.53;100.00;57128.34;10227399;28;20150;-81
2022/08/08 18:09:51;;;;;;;4.13;1.10;;;;;;;-147.53;100.00;57128.34;10244379;28;20039;-78
2022/08/08 18:14:53;;;;;;;4.43;1.15;;;;;;;-147.53;100.00;57128.34;10253847;28;20094;-80
2022/08/08 18:19:55;;;;;;;6.45;1.00;;;;;;;-147.53;100.00;57128.34;10226889;28;20071;-80
2022/08/08 18:25:17;;;;;;;3.50;1.05;;;;;;;-147.53;100.00;57128.34;10226573;28;20051;-80
2022/08/08 18:30:20;;;;;;;2.80;0.80;;;;;;;-147.53;100.00;57128.34;10249898;28;20075;-80
2022/08/08 18:35:22;;;;;;;4.03;1.08;;;;;;;-147.53;100.00;57128.34;10245813;28;20587;-80
2022/08/08 18:40:24;;;;;;;3.90;1.00;;;;;;;-147.53;100.00;57128.34;10250904;28;20590;-81
2022/08/08 18:45:36;;;;;;;2.63;0.80;;;;;;;-147.53;100.00;57128.34;10227982;28;20051;-78
2022/08/08 18:50:58;;;;;;;3.90;1.00;;;;;;;-147.53;100.00;57128.34;10241462;28;20043;-81
2022/08/08 18:56:00;;;;;;;4.35;1.10;;;;;;;-147.53;100.00;57128.34;10222721;28;20047;-80
2022/08/08 19:01:03;;;;;;;4.50;0.90;;;;;;;-147.53;100.00;57128.34;10240279;28;20210;-78
2022/08/08 19:06:26;;;;;;;4.07;1.00;;;;;;;-147.53;100.00;57128.34;10246522;28;20047;-80
2022/08/08 19:11:29;;;;;;;4.68;1.30;;;;;;;-147.53;100.00;57128.34;10229618;28;20528;-79
2022/08/08 19:16:35;;;;;;;3.15;0.93;;;;;;;-147.53;100.00;57128.34;10252496;28;20070;-79
2022/08/08 19:21:38;;;;;;;5.03;1.20;;;;;;;-147.53;100.00;57128.34;10215690;28;20043;-79
2022/08/08 19:26:50;;;;;;;2.78;1.15;;;;;;;-147.53;100.00;57128.34;10248859;28;20050;-80
2022/08/08 19:31:53;;;;;;;5.68;1.40;;;;;;;-147.53;100.00;57128.34;10248894;28;20051;-79
2022/08/08 19:36:57;;;;;;;4.55;1.63;;;;;;;-147.53;100.00;57128.34;10229884;28;20451;-80
2022/08/08 19:41:59;;;;;;;5.80;1.50;;;;;;;-147.53;100.00;57128.34;10234765;28;20107;-80
2022/08/08 19:47:01;;;;;;;4.13;1.30;;;;;;;-147.53;100.00;57128.34;10224524;28;20047;-80
2022/08/08 19:52:07;;;;;;;3.60;1.40;;;;;;;-147.53;100.00;57128.34;10240002;28;20053;-81
2022/08/08 19:57:12;;;;;;;5.28;1.40;;;;;;;-147.53;100.00;57128.34;10241058;28;20067;-80
2022/08/08 20:02:16;;;;;;;7.55;1.33;;;;;;;-147.53;100.00;57128.34;10227257;28;20114;-81
2022/08/08 20:07:18;;;;;;;3.50;1.52;;;;;;;-147.53;100.00;57128.34;10242176;28;20043;-81
2022/08/08 20:12:39;;;;;;;6.18;1.73;;;;;;;-147.53;100.00;57128.34;10228461;28;20047;-81
2022/08/08 20:18:02;;;;;;;7.32;1.70;;;;;;;-147.53;100.00;57128.34;10240964;28;20043;-80
2022/08/08 20:23:15;;;;;;;8.05;1.90;;;;;;;-147.53;100.00;57128.34;10203386;28;20052;-81
2022/08/08 20:28:18;;;;;;;4.43;1.80;;;;;;;-147.53;100.00;57128.34;10237643;28;20479;-81
2022/08/08 20:33:25;;;;;;;3.33;1.58;;;;;;;-147.53;100.00;57128.34;10242356;28;20098;-81
2022/08/08 20:38:26;;;;;;;6.03;1.58;;;;;;;-147.53;100.00;57128.34;10245872;28;20043;-81
2022/08/08 20:43:35;;;;;;;6.22;1.77;;;;;;;-147.53;100.00;57128.34;10240012;28;20558;-81
2022/08/08 20:48:49;;;;;;;3.75;1.90;;;;;;;-147.53;100.00;57128.34;10244748;28;20043;-81
2022/08/08 20:53:52;;;;;;;7.05;2.08;;;;;;;-147.53;100.00;57128.34;10242840;28;20186;-82
2022/08/08 20:59:04;;;;;;;3.47;1.52;;;;;;;-147.53;100.00;57128.34;10229888;28;20047;-81
2022/08/08 21:04:10;;;;;;;6.20;2.25;;;;;;;-147.53;100.00;57128.34;10226601;28;20430;-81
2022/08/08 21:09:15;;;;;;;5.55;1.85;;;;;;;-147.53;100.00;57128.34;10226091;28;20046;-81
2022/08/08 21:14:16;;;;;;;5.57;1.75;;;;;;;-147.53;100.00;57128.34;10241166;28;20055;-81
2022/08/08 21:19:30;;;;;;;5.20;1.65;;;;;;;-147.53;100.00;57128.34;10241531;28;20051;-81
2022/08/08 21:24:46;;;;;;;3.33;1.50;;;;;;;-147.53;100.00;57128.34;10240458;28;20047;-81
2022/08/08 21:29:55;;;;;;;3.70;1.50;;;;;;;-147.53;100.00;57128.34;10226806;28;20124;-81
2022/08/08 21:35:10;;;;;;;3.58;1.20;;;;;;;-147.53;100.00;57128.34;10226915;28;20058;-81
2022/08/08 21:40:31;;;;;;;3.85;1.55;;;;;;;-147.53;100.00;57128.34;10240025;28;20075;-81
2022/08/08 21:45:33;;;;;;;2.95;1.40;;;;;;;-147.53;100.00;57128.34;10239749;28;20043;-81
2022/08/08 21:50:55;;;;;;;5.90;1.58;;;;;;;-147.53;100.00;57128.34;10228376;28;20404;-80
2022/08/08 21:55:59;;;;;;;9.40;1.92;;;;;;;-147.53;100.00;57128.34;10246739;28;20106;-81
2022/08/08 22:01:23;;;;;;;2.70;1.27;;;;;;;-147.53;100.00;57128.34;10211292;28;20150;-81
2022/08/08 22:06:41;;;;;;;3.70;1.50;;;;;;;-147.53;100.00;57128.34;10241067;28;20054;-81
2022/08/08 22:11:43;;;;;;;4.72;1.80;;;;;;;-147.53;100.00;57128.34;10245600;28;20042;-81
2022/08/08 22:17:04;;;;;;;4.72;1.50;;;;;;;-147.53;100.00;57128.34;10238061;28;20055;-81
2022/08/08 22:22:08;;;;;;;3.67;1.55;;;;;;;-147.53;100.00;57128.34;10240560;28;20050;-82
2022/08/08 22:27:14;;;;;;;5.75;1.73;;;;;;;-147.53;100.00;57128.34;10206621;28;20049;-81
2022/08/08 22:32:36;;;;;;;5.82;1.80;;;;;;;-147.53;100.00;57128.34;10241601;28;20047;-81
2022/08/08 22:37:39;;;;;;;11.10;2.28;;;;;;;-147.53;100.00;57128.34;10223320;28;20047;-81
2022/08/08 22:42:54;;;;;;;5.50;2.00;;;;;;;-147.53;100.00;57128.34;10233244;28;20396;-81
2022/08/08 22:47:58;;;;;;;3.22;1.70;;;;;;;-147.53;100.00;57128.34;10221830;28;20051;-81
2022/08/08 22:53:02;;;;;;;6.20;1.95;;;;;;;-147.53;100.00;57128.34;10225169;28;20115;-82
2022/08/08 22:58:23;;;;;;;6.65;1.67;;;;;;;-147.53;100.00;57128.34;10224102;28;20046;-82
2022/08/08 23:03:29;;;;;;;7.05;2.35;;;;;;;-147.53;100.00;57128.34;10224834;28;20058;-81
2022/08/08 23:08:53;;;;;;;4.85;1.95;;;;;;;-147.53;100.00;57128.34;10222875;28;20043;-81
2022/08/08 23:14:00;;;;;;;6.40;2.50;;;;;;;-147.53;100.00;57128.34;10245028;28;20582;-81
2022/08/08 23:19:02;;;;;;;8.32;2.50;;;;;;;-147.53;100.00;57128.34;10241334;28;20055;-81
2022/08/08 23:24:05;;;;;;;4.93;1.73;;;;;;;-147.53;100.00;57128.34;10222953;28;20055;-83
2022/08/08 23:29:07;;;;;;;7.07;2.15;;;;;;;-147.53;100.00;57128.34;10241219;28;20140;-81